Time;durP1;ratioP1;P1;durP2;ratioP2;P2;SDS_P1;SDS_P2;PMS_P1;PMS_P2;Temp;Humidity;BMP_temperature;BMP_pressure;BME280_temperature;BME280_humidity;BME280_pressure;Samples;Min_cycle;Max_cycle;Signal;HPM_P1;HPM_P2
2023/07/01 00:02:06;;;;;;;4.32;3.17;;;;;;;25.94;57.70;100432.75;4861526;29;20406;-59
2023/07/01 00:04:33;;;;;;;4.82;3.38;;;;;;;25.95;57.61;100429.00;4861626;29;20409;-59
2023/07/01 00:07:01;;;;;;;4.70;3.13;;;;;;;25.96;57.66;100427.97;4861655;29;20054;-52
2023/07/01 00:09:28;;;;;;;4.53;3.28;;;;;;;25.97;57.66;100426.09;4861359;29;20053;-52
2023/07/01 00:11:56;;;;;;;7.43;4.30;;;;;;;25.98;57.68;100420.50;4861739;29;20418;-54
2023/07/01 00:14:23;;;;;;;5.00;3.33;;;;;;;25.99;57.64;100418.63;4861365;29;20045;-51
2023/07/01 00:16:51;;;;;;;5.88;3.03;;;;;;;25.99;57.58;100414.03;4861431;29;20050;-53
2023/07/01 00:19:18;;;;;;;4.43;3.20;;;;;;;26.01;57.59;100411.13;4860934;29;20053;-51
2023/07/01 00:21:45;;;;;;;4.35;3.22;;;;;;;26.00;57.51;100413.00;4861278;29;20053;-55
2023/07/01 00:24:13;;;;;;;4.38;3.50;;;;;;;26.02;57.58;100410.13;4861213;29;20044;-51
2023/07/01 00:26:40;;;;;;;5.28;3.08;;;;;;;26.02;57.49;100416.41;4861303;29;20049;-51
2023/07/01 00:29:08;;;;;;;6.32;3.17;;;;;;;26.03;57.52;100401.78;4861490;29;20061;-54
2023/07/01 00:31:36;;;;;;;4.38;3.08;;;;;;;26.03;57.52;100399.09;4861648;29;20064;-51
2023/07/01 00:34:03;;;;;;;4.82;3.30;;;;;;;26.04;57.51;100398.03;4860078;29;20498;-55
2023/07/01 00:36:31;;;;;;;4.53;3.10;;;;;;;26.05;57.50;100397.03;4861367;29;20052;-54
2023/07/01 00:38:58;;;;;;;4.03;3.22;;;;;;;26.06;57.47;100392.44;4875300;29;20060;-54
2023/07/01 00:41:26;;;;;;;4.28;3.05;;;;;;;26.05;57.37;100397.03;4859890;29;20390;-53
2023/07/01 00:43:54;;;;;;;4.88;2.95;;;;;;;26.07;57.44;100410.41;4861275;29;20478;-52
2023/07/01 00:46:21;;;;;;;4.13;2.80;;;;;;;26.06;57.37;100420.41;4859777;29;20049;-58
2023/07/01 00:48:49;;;;;;;3.95;3.13;;;;;;;26.08;57.42;100414.78;4860926;29;20406;-58
2023/07/01 00:51:17;;;;;;;3.30;2.53;;;;;;;26.08;57.43;100418.34;4861012;29;20049;-59
2023/07/01 00:53:44;;;;;;;5.50;3.22;;;;;;;26.08;57.43;100421.06;4861147;29;20049;-59
2023/07/01 00:56:13;;;;;;;6.88;3.67;;;;;;;26.08;57.44;100426.47;4860919;29;20064;-53
2023/07/01 00:58:40;;;;;;;5.00;3.67;;;;;;;26.09;57.39;100424.59;4859718;29;20494;-53
2023/07/01 01:01:13;;;;;;;4.55;3.45;;;;;;;26.09;57.38;100424.59;4860984;29;20060;-51
2023/07/01 01:04:04;;;;;;;4.43;3.58;;;;;;;26.10;57.36;100429.03;4861142;29;20045;-53
2023/07/01 01:06:36;;;;;;;4.15;3.38;;;;;;;26.09;57.47;100428.19;4860851;29;20057;-52
2023/07/01 01:09:20;;;;;;;7.80;3.35;;;;;;;26.10;57.40;100440.72;4861008;29;20049;-54
2023/07/01 01:11:49;;;;;;;5.07;3.70;;;;;;;26.11;57.36;100436.13;4860963;29;20049;-53
2023/07/01 01:14:17;;;;;;;4.93;3.85;;;;;;;26.11;57.36;100430.72;4861372;29;20052;-52
2023/07/01 01:16:47;;;;;;;4.70;3.63;;;;;;;26.10;57.37;100435.28;4875132;29;20046;-59
2023/07/01 01:19:39;;;;;;;6.10;3.53;;;;;;;26.12;57.35;100435.09;4860909;29;20046;-59
2023/07/01 01:22:17;;;;;;;5.47;3.47;;;;;;;26.11;57.49;100434.25;4859486;29;20413;-59
2023/07/01 01:24:53;;;;;;;5.70;3.85;;;;;;;26.12;57.52;100430.50;4874399;29;20060;-58
2023/07/01 01:27:30;;;;;;;5.72;3.58;;;;;;;26.12;57.26;100424.25;4860873;29;20062;-52
2023/07/01 01:29:59;;;;;;;4.65;3.75;;;;;;;26.12;57.35;100422.38;4860951;29;20061;-53
2023/07/01 01:32:28;;;;;;;5.00;3.35;;;;;;;26.13;57.30;100423.25;4861415;29;20410;-52
2023/07/01 01:34:58;;;;;;;4.47;3.25;;;;;;;26.13;57.41;100417.81;4864003;29;20061;-53
2023/07/01 01:37:53;;;;;;;5.00;3.38;;;;;;;26.13;57.38;100415.94;4878275;29;20052;-55
2023/07/01 01:40:48;;;;;;;5.68;4.25;;;;;;;26.13;57.38;100410.50;4863960;29;20065;-51
2023/07/01 01:43:37;;;;;;;4.90;3.97;;;;;;;26.14;57.29;100411.34;4863792;29;20057;-55
2023/07/01 01:46:07;;;;;;;5.88;3.78;;;;;;;26.14;57.32;100414.91;4863838;29;20053;-54
2023/07/01 01:48:37;;;;;;;4.50;3.80;;;;;;;26.14;57.35;100420.31;4864327;29;20061;-54
2023/07/01 01:51:07;;;;;;;5.20;4.20;;;;;;;26.14;57.37;100419.50;4863870;29;20053;-55
2023/07/01 01:53:37;;;;;;;7.35;4.40;;;;;;;26.15;57.28;100418.44;4863841;29;20411;-52
2023/07/01 01:56:06;;;;;;;6.97;4.35;;;;;;;26.15;57.40;100413.03;4863986;29;20056;-54
2023/07/01 01:58:33;;;;;;;5.18;3.50;;;;;;;26.14;57.22;100409.47;4878132;29;20060;-51
2023/07/01 02:01:01;;;;;;;7.25;4.13;;;;;;;26.15;57.32;100407.59;4877312;29;20057;-53
2023/07/01 02:03:29;;;;;;;5.57;4.20;;;;;;;26.15;57.30;100396.75;4877044;29;20053;-52
2023/07/01 02:05:56;;;;;;;5.03;3.22;;;;;;;26.16;57.25;100394.88;4876867;29;20072;-58
2023/07/01 02:08:24;;;;;;;4.80;3.67;;;;;;;26.16;57.25;100387.56;4863534;29;20056;-59
2023/07/01 02:10:51;;;;;;;5.70;3.33;;;;;;;26.16;57.26;100398.44;4862498;29;20068;-58
2023/07/01 02:13:18;;;;;;;5.38;3.67;;;;;;;26.16;57.24;100398.44;4877639;29;20501;-58
2023/07/01 02:15:46;;;;;;;6.05;3.63;;;;;;;26.17;57.25;100393.84;4861906;29;20057;-58
2023/07/01 02:18:13;;;;;;;6.88;4.05;;;;;;;26.16;57.20;100384.84;4863313;29;20061;-59
2023/07/01 02:20:41;;;;;;;6.90;3.88;;;;;;;26.17;57.26;100393.84;4861802;29;20061;-58
2023/07/01 02:23:08;;;;;;;4.68;3.10;;;;;;;26.18;57.19;100385.53;4863343;29;20057;-59
2023/07/01 02:25:36;;;;;;;4.15;3.70;;;;;;;26.18;57.23;100384.69;4863090;29;20060;-55
2023/07/01 02:28:03;;;;;;;5.82;3.38;;;;;;;26.18;57.18;100380.09;4863230;29;20054;-52
2023/07/01 02:30:31;;;;;;;4.22;3.58;;;;;;;26.18;57.09;100385.53;4863415;29;20053;-51
2023/07/01 02:32:59;;;;;;;4.70;3.72;;;;;;;26.18;57.16;100381.97;4863250;29;20049;-52
2023/07/01 02:35:26;;;;;;;6.63;3.80;;;;;;;26.19;57.28;100386.38;4862012;29;20139;-54
2023/07/01 02:37:53;;;;;;;5.20;4.00;;;;;;;26.19;57.15;100397.22;4863153;29;20057;-58
2023/07/01 02:40:21;;;;;;;5.93;4.57;;;;;;;26.20;57.23;100391.59;4863048;29;20045;-58
2023/07/01 02:42:48;;;;;;;5.72;4.53;;;;;;;26.19;57.24;100387.22;4862563;29;20060;-59
2023/07/01 02:45:16;;;;;;;8.27;4.38;;;;;;;26.20;57.21;100394.31;4862811;29;20053;-59
2023/07/01 02:47:43;;;;;;;5.03;3.75;;;;;;;26.20;57.24;100393.47;4846259;29;20057;-53
2023/07/01 02:50:10;;;;;;;4.72;3.97;;;;;;;26.20;57.15;100386.16;4862866;29;20053;-52
2023/07/01 02:52:38;;;;;;;6.50;4.00;;;;;;;26.20;57.30;100382.63;4861224;29;20062;-53
2023/07/01 02:55:06;;;;;;;7.20;4.65;;;;;;;26.21;57.30;100390.59;4862769;29;20050;-53
2023/07/01 02:57:33;;;;;;;6.25;4.85;;;;;;;26.21;57.25;100387.88;4863069;29;20049;-55
2023/07/01 03:00:00;;;;;;;8.63;5.55;;;;;;;26.21;57.23;100400.56;4862602;29;20053;-54
2023/07/01 03:02:28;;;;;;;6.78;5.03;;;;;;;26.20;57.27;100385.34;4862813;29;20049;-51
2023/07/01 03:04:56;;;;;;;6.45;5.55;;;;;;;26.19;57.24;100386.38;4862521;29;20053;-53
2023/07/01 03:07:23;;;;;;;6.35;5.35;;;;;;;26.18;57.18;100384.69;4862543;29;20525;-55
2023/07/01 03:09:50;;;;;;;8.68;5.90;;;;;;;26.16;57.14;100382.16;4860894;29;20057;-52
2023/07/01 03:12:18;;;;;;;7.60;5.80;;;;;;;26.15;57.16;100377.75;4862505;29;20053;-56
2023/07/01 03:14:45;;;;;;;8.82;6.90;;;;;;;26.16;57.26;100375.88;4876255;29;20053;-54
2023/07/01 03:17:13;;;;;;;8.40;6.85;;;;;;;26.16;57.14;100379.44;4861371;29;20065;-59
2023/07/01 03:19:41;;;;;;;8.60;6.88;;;;;;;26.13;57.07;100372.53;4862366;29;20049;-59
2023/07/01 03:22:09;;;;;;;7.97;6.25;;;;;;;26.12;57.22;100370.00;4861188;29;20060;-58
2023/07/01 03:24:36;;;;;;;7.40;6.60;;;;;;;26.13;57.15;100371.69;4876078;29;20399;-59
2023/07/01 03:27:04;;;;;;;8.88;6.70;;;;;;;26.13;57.21;100366.28;4876469;29;20049;-54
2023/07/01 03:29:31;;;;;;;7.35;6.45;;;;;;;26.12;57.19;100368.13;4876241;29;20057;-54
2023/07/01 03:31:59;;;;;;;7.97;6.90;;;;;;;26.12;57.21;100370.00;4860780;29;20053;-55
2023/07/01 03:34:26;;;;;;;8.80;6.72;;;;;;;26.12;57.19;100368.13;4861796;29;20405;-55
2023/07/01 03:36:53;;;;;;;8.57;7.03;;;;;;;26.12;57.28;100359.13;4861836;29;20076;-58
2023/07/01 03:39:21;;;;;;;8.00;7.20;;;;;;;26.12;57.32;100362.69;4861610;29;20053;-59
2023/07/01 03:41:48;;;;;;;8.88;7.65;;;;;;;26.10;57.36;100351.19;4861556;29;20136;-58
2023/07/01 03:44:16;;;;;;;8.25;7.47;;;;;;;26.10;57.33;100348.47;4861743;29;20524;-59
2023/07/01 03:46:43;;;;;;;8.40;7.38;;;;;;;26.11;57.47;100349.31;4861803;29;20053;-54
2023/07/01 03:49:11;;;;;;;8.48;7.10;;;;;;;26.10;57.33;100350.34;4861878;29;20053;-53
2023/07/01 03:51:38;;;;;;;9.00;7.57;;;;;;;26.09;57.29;100352.22;4861811;29;20502;-53
2023/07/01 03:54:06;;;;;;;11.00;7.72;;;;;;;26.09;57.28;100352.22;4861087;29;20057;-52
2023/07/01 03:56:33;;;;;;;7.78;6.80;;;;;;;26.09;57.24;100352.22;4861822;29;20045;-58
2023/07/01 03:59:01;;;;;;;8.35;7.28;;;;;;;26.10;57.44;100366.63;4861673;29;20052;-59
2023/07/01 04:01:31;;;;;;;9.00;8.02;;;;;;;26.09;57.60;100363.09;4861574;29;20061;-58
2023/07/01 04:03:59;;;;;;;8.15;7.32;;;;;;;26.10;57.47;100366.63;4861698;29;20057;-59
2023/07/01 04:06:27;;;;;;;8.23;6.97;;;;;;;26.10;57.36;100364.75;4861401;29;20064;-55
2023/07/01 04:08:54;;;;;;;8.13;6.68;;;;;;;26.10;57.24;100364.75;4861527;29;20056;-51
2023/07/01 04:11:23;;;;;;;8.32;6.35;;;;;;;26.10;57.37;100362.03;4861334;29;20060;-54
2023/07/01 04:13:51;;;;;;;9.10;6.68;;;;;;;26.10;57.26;100362.03;4861447;29;20046;-55
2023/07/01 04:16:18;;;;;;;8.68;7.00;;;;;;;26.11;57.13;100357.47;4861196;29;20398;-55
2023/07/01 04:18:46;;;;;;;8.07;7.28;;;;;;;26.09;57.12;100348.66;4861388;29;20056;-54
2023/07/01 04:21:13;;;;;;;8.13;7.32;;;;;;;26.09;57.16;100344.09;4861337;29;20540;-53
2023/07/01 04:23:41;;;;;;;10.48;7.90;;;;;;;26.09;57.20;100348.66;4861341;29;20406;-54
2023/07/01 04:26:08;;;;;;;7.75;6.38;;;;;;;26.08;57.20;100353.25;4861604;29;20049;-58
2023/07/01 04:28:35;;;;;;;8.55;7.63;;;;;;;26.09;57.17;100341.38;4861255;29;20505;-59
2023/07/01 04:31:03;;;;;;;8.95;7.50;;;;;;;26.08;57.44;100331.53;4861511;29;20049;-59
2023/07/01 04:33:30;;;;;;;8.88;7.95;;;;;;;26.09;57.51;100333.25;4861222;29;20050;-59
2023/07/01 04:35:57;;;;;;;8.93;8.02;;;;;;;26.08;57.49;100334.25;4861231;29;20371;-58
2023/07/01 04:38:25;;;;;;;8.23;7.35;;;;;;;26.08;57.53;100331.53;4861244;29;20057;-59
2023/07/01 04:40:53;;;;;;;8.82;7.88;;;;;;;26.09;57.41;100346.81;4861127;29;20053;-59
2023/07/01 04:43:21;;;;;;;10.98;9.63;;;;;;;26.09;57.51;100344.09;4861084;29;20053;-59
2023/07/01 04:45:49;;;;;;;10.90;9.00;;;;;;;26.09;57.57;100348.66;4875331;29;20056;-53
2023/07/01 04:48:16;;;;;;;9.70;8.50;;;;;;;26.09;57.58;100356.78;4861334;29;20053;-52
2023/07/01 04:50:44;;;;;;;9.55;8.27;;;;;;;26.09;57.37;100359.50;4861068;29;20053;-54
2023/07/01 04:53:11;;;;;;;9.23;7.25;;;;;;;26.08;57.32;100355.94;4861061;29;20394;-54
2023/07/01 04:55:39;;;;;;;9.27;8.38;;;;;;;26.09;57.44;100364.94;4861041;29;20045;-57
2023/07/01 04:58:08;;;;;;;10.15;9.13;;;;;;;26.08;57.49;100355.94;4860997;29;20046;-58
2023/07/01 05:00:37;;;;;;;9.98;8.98;;;;;;;26.09;57.57;100365.78;4861358;29;20045;-59
2023/07/01 05:03:04;;;;;;;9.48;8.48;;;;;;;26.10;57.63;100362.03;4861062;29;20058;-59
2023/07/01 05:05:32;;;;;;;9.50;7.65;;;;;;;26.08;57.33;100364.09;4861717;29;20050;-59
2023/07/01 05:08:01;;;;;;;9.65;8.40;;;;;;;26.09;57.22;100363.09;4864487;29;20057;-52
2023/07/01 05:10:29;;;;;;;9.25;7.65;;;;;;;26.09;57.33;100360.38;4864457;29;20537;-52
2023/07/01 05:12:57;;;;;;;9.77;8.43;;;;;;;26.09;57.21;100371.22;4864529;29;20058;-54
2023/07/01 05:15:24;;;;;;;10.75;9.75;;;;;;;26.09;57.36;100370.34;4864574;29;20072;-54
2023/07/01 05:17:52;;;;;;;11.18;9.80;;;;;;;26.10;57.47;100375.59;4864633;29;20056;-58
2023/07/01 05:20:19;;;;;;;10.95;9.85;;;;;;;26.09;57.60;100371.22;4864054;29;20069;-59
2023/07/01 05:22:46;;;;;;;11.98;10.75;;;;;;;26.09;57.65;100373.94;4864392;29;20481;-59
2023/07/01 05:25:14;;;;;;;11.95;10.75;;;;;;;26.08;57.61;100369.50;4864239;29;20054;-59
2023/07/01 05:27:41;;;;;;;12.45;11.23;;;;;;;26.09;57.51;100376.66;4864355;29;20051;-55
2023/07/01 05:30:08;;;;;;;14.05;12.55;;;;;;;26.08;57.56;100383.09;4864261;29;20049;-52
2023/07/01 05:32:36;;;;;;;12.85;11.45;;;;;;;26.09;57.37;100376.66;4864533;29;20061;-54
2023/07/01 05:35:04;;;;;;;10.60;9.50;;;;;;;26.09;57.47;100379.38;4864179;29;20054;-55
2023/07/01 05:37:32;;;;;;;10.60;9.60;;;;;;;26.09;57.44;100376.66;4864094;29;20061;-59
2023/07/01 05:39:59;;;;;;;12.50;10.35;;;;;;;26.09;57.34;100376.66;4864125;29;20046;-59
2023/07/01 05:42:26;;;;;;;11.23;9.80;;;;;;;26.09;57.27;100373.94;4864025;29;20098;-59
2023/07/01 05:44:54;;;;;;;11.93;10.68;;;;;;;26.09;57.35;100367.63;4864037;29;20401;-59
2023/07/01 05:47:21;;;;;;;12.63;10.20;;;;;;;26.08;57.18;100369.50;4864042;29;20046;-55
2023/07/01 05:49:48;;;;;;;11.45;10.25;;;;;;;26.08;57.17;100368.69;4863922;29;20502;-53
2023/07/01 05:52:16;;;;;;;11.20;10.10;;;;;;;26.09;57.04;100367.63;4863773;29;20406;-55
2023/07/01 05:54:43;;;;;;;11.70;10.50;;;;;;;26.07;57.09;100370.56;4863827;29;20076;-55
2023/07/01 05:57:10;;;;;;;12.68;10.43;;;;;;;26.08;57.14;100374.09;4863630;29;20486;-54
2023/07/01 05:59:38;;;;;;;14.75;11.18;;;;;;;26.09;57.28;100378.50;4863671;29;20050;-55
2023/07/01 06:02:06;;;;;;;11.60;10.38;;;;;;;26.08;57.19;100377.66;4863620;29;20049;-54
2023/07/01 06:04:34;;;;;;;12.70;11.48;;;;;;;26.08;57.24;100374.94;4863637;29;20053;-55
2023/07/01 06:07:01;;;;;;;13.38;10.32;;;;;;;26.07;57.07;100378.69;4863430;29;20049;-59
2023/07/01 06:09:28;;;;;;;11.23;9.88;;;;;;;26.08;56.92;100382.25;4863703;29;20045;-59
2023/07/01 06:11:56;;;;;;;11.73;10.52;;;;;;;26.07;56.97;100383.28;4863511;29;20060;-59
2023/07/01 06:14:23;;;;;;;12.23;10.25;;;;;;;26.08;56.89;100391.22;4863615;29;20045;-59
2023/07/01 06:16:50;;;;;;;11.98;9.73;;;;;;;26.08;56.87;100393.09;4863369;29;20037;-58
2023/07/01 06:19:18;;;;;;;12.50;10.93;;;;;;;26.08;56.90;100390.38;4863299;29;20061;-59
2023/07/01 06:21:46;;;;;;;11.25;10.15;;;;;;;26.09;56.89;100392.06;4863465;29;20110;-58
2023/07/01 06:24:13;;;;;;;11.00;9.90;;;;;;;26.08;56.94;100399.34;4863469;29;20406;-59
2023/07/01 06:26:40;;;;;;;11.65;10.45;;;;;;;26.09;57.02;100401.06;4863217;29;20050;-52
2023/07/01 06:29:08;;;;;;;13.77;9.57;;;;;;;26.09;56.91;100400.19;4863312;29;20057;-55
2023/07/01 06:31:37;;;;;;;11.52;9.73;;;;;;;26.11;56.80;100411.72;4863347;29;20056;-55
2023/07/01 06:34:11;;;;;;;10.23;9.18;;;;;;;26.11;56.84;100412.56;4863193;29;20051;-54
2023/07/01 06:36:39;;;;;;;12.10;10.77;;;;;;;26.11;56.86;100417.97;4861693;29;20053;-59
2023/07/01 06:39:06;;;;;;;13.68;11.52;;;;;;;26.11;56.84;100423.41;4863137;29;20058;-59
2023/07/01 06:41:33;;;;;;;12.32;10.95;;;;;;;26.12;56.97;100410.69;4862493;29;20053;-59
2023/07/01 06:44:01;;;;;;;11.80;10.70;;;;;;;26.12;57.01;100407.97;4862765;29;20491;-59
2023/07/01 06:46:28;;;;;;;12.45;11.15;;;;;;;26.12;56.89;100419.66;4862857;29;20060;-59
2023/07/01 06:48:56;;;;;;;14.50;10.73;;;;;;;26.11;56.97;100412.56;4862914;29;20049;-59
2023/07/01 06:51:23;;;;;;;10.90;9.77;;;;;;;26.11;56.74;100412.56;4863114;29;20041;-59
2023/07/01 06:53:51;;;;;;;11.48;10.30;;;;;;;26.11;56.86;100407.13;4862749;29;20064;-59
2023/07/01 06:56:18;;;;;;;11.07;9.98;;;;;;;26.10;56.85;100402.75;4862757;29;20042;-55
2023/07/01 06:58:45;;;;;;;11.88;9.90;;;;;;;26.11;56.75;100401.69;4862668;29;20049;-56
2023/07/01 07:01:13;;;;;;;10.25;9.25;;;;;;;26.11;56.68;100400.88;4862714;29;20056;-55
2023/07/01 07:03:40;;;;;;;9.65;8.65;;;;;;;26.12;56.66;100403.38;4862748;29;20098;-53
2023/07/01 07:06:08;;;;;;;10.85;9.75;;;;;;;26.11;56.71;100407.13;4862392;29;20406;-59
2023/07/01 07:08:36;;;;;;;12.25;9.32;;;;;;;26.12;56.75;100408.81;4862753;29;20060;-59
2023/07/01 07:11:04;;;;;;;10.68;9.57;;;;;;;26.12;57.12;100406.09;4862307;29;20383;-59
2023/07/01 07:13:31;;;;;;;9.70;8.70;;;;;;;26.12;56.59;100408.81;4862441;29;20061;-59
2023/07/01 07:15:58;;;;;;;10.43;8.50;;;;;;;26.13;56.79;100406.97;4862613;29;20076;-55
2023/07/01 07:18:26;;;;;;;9.77;8.75;;;;;;;26.14;56.47;100412.19;4862443;29;20049;-54
2023/07/01 07:20:53;;;;;;;10.20;8.63;;;;;;;26.12;56.53;100414.22;4862233;29;20053;-54
2023/07/01 07:23:21;;;;;;;11.32;8.45;;;;;;;26.13;56.57;100415.09;4862246;29;20057;-54
2023/07/01 07:25:48;;;;;;;7.85;7.10;;;;;;;26.12;56.66;100418.81;4862253;29;20060;-58
2023/07/01 07:28:16;;;;;;;9.75;7.57;;;;;;;26.13;56.42;100423.25;4862182;29;20052;-59
2023/07/01 07:30:44;;;;;;;9.27;7.00;;;;;;;26.13;56.08;100418.66;4862224;29;20049;-59
2023/07/01 07:33:12;;;;;;;9.70;8.70;;;;;;;26.13;56.62;100429.50;4862025;29;20052;-59
2023/07/01 07:35:39;;;;;;;9.23;8.05;;;;;;;26.12;56.39;100427.78;4862156;29;20061;-55
2023/07/01 07:38:07;;;;;;;9.43;7.85;;;;;;;26.13;56.53;100421.38;4861882;29;20049;-59
2023/07/01 07:40:34;;;;;;;8.13;7.30;;;;;;;26.14;56.63;100425.75;4861836;29;20053;-59
2023/07/01 07:43:10;;;;;;;13.70;12.23;;;;;;;26.07;56.22;100423.97;4870583;29;20056;-58
2023/07/01 07:45:38;;;;;;;18.17;16.33;;;;;;;25.82;56.12;100426.09;4860509;29;20053;-58
2023/07/01 07:48:06;;;;;;;21.08;17.33;;;;;;;25.59;56.66;100423.38;4860326;29;20236;-59
2023/07/01 07:50:35;;;;;;;14.93;11.77;;;;;;;25.59;56.74;100417.97;4861750;29;20076;-59
2023/07/01 07:53:03;;;;;;;15.18;13.60;;;;;;;25.49;56.48;100418.22;4862147;29;20056;-59
2023/07/01 07:55:33;;;;;;;14.52;11.77;;;;;;;25.51;56.55;100416.16;4861452;29;20072;-59
2023/07/01 07:58:02;;;;;;;16.98;15.32;;;;;;;25.40;57.01;100417.47;4861375;29;20050;-58
2023/07/01 08:00:29;;;;;;;19.13;17.25;;;;;;;25.26;57.30;100417.41;4861385;29;20493;-59
2023/07/01 08:02:57;;;;;;;20.30;18.13;;;;;;;25.14;57.17;100414.25;4861126;29;20053;-59
2023/07/01 08:05:26;;;;;;;17.95;16.02;;;;;;;25.02;57.29;100418.38;4861378;29;20382;-59
2023/07/01 08:07:54;;;;;;;18.63;16.58;;;;;;;24.95;57.54;100415.53;4861035;29;20053;-60
2023/07/01 08:10:21;;;;;;;18.45;16.60;;;;;;;24.90;58.16;100410.66;4861158;29;20509;-58
2023/07/01 08:12:48;;;;;;;15.75;14.05;;;;;;;24.87;58.31;100407.47;4861423;29;20414;-59
2023/07/01 08:15:17;;;;;;;10.52;9.30;;;;;;;24.99;57.82;100410.59;4861165;29;20054;-58
2023/07/01 08:17:44;;;;;;;14.13;11.85;;;;;;;25.07;57.84;100405.97;4861030;29;20120;-56
2023/07/01 08:20:12;;;;;;;15.13;12.63;;;;;;;25.09;58.08;100409.38;4860979;29;20049;-57
2023/07/01 08:22:39;;;;;;;11.88;10.25;;;;;;;25.19;57.64;100397.47;4861259;29;20050;-56
2023/07/01 08:25:07;;;;;;;14.13;12.73;;;;;;;25.20;57.79;100396.44;4860959;29;20410;-57
2023/07/01 08:27:34;;;;;;;19.08;17.13;;;;;;;25.08;58.04;100396.84;4860575;29;20069;-56
2023/07/01 08:30:02;;;;;;;19.63;17.58;;;;;;;24.94;58.50;100405.72;4861225;29;20049;-58
2023/07/01 08:32:29;;;;;;;20.33;17.45;;;;;;;24.83;58.56;100400.72;4860858;29;20053;-58
2023/07/01 08:34:57;;;;;;;14.38;12.85;;;;;;;24.88;58.47;100403.75;4860664;29;20064;-55
2023/07/01 08:37:25;;;;;;;21.90;17.92;;;;;;;24.85;58.49;100399.53;4861057;29;20048;-57
2023/07/01 08:39:53;;;;;;;21.52;19.25;;;;;;;24.76;59.09;100395.19;4861427;29;20060;-57
2023/07/01 08:42:25;;;;;;;23.48;21.05;;;;;;;24.66;59.17;100397.25;4866818;29;20061;-58
2023/07/01 08:44:53;;;;;;;;;;;;;;;24.52;59.42;100408.84;4867736;29;20058;-58
2023/07/01 08:47:21;;;;;;;23.27;20.88;;;;;;;24.47;59.87;100408.50;4866717;29;19928;-58
2023/07/01 08:49:53;;;;;;;24.13;21.63;;;;;;;24.41;60.08;100402.78;4866691;29;20056;-58
2023/07/01 08:52:22;;;;;;;25.80;23.10;;;;;;;24.33;60.31;100399.25;4866928;29;20053;-59
2023/07/01 08:54:49;;;;;;;25.60;22.95;;;;;;;24.33;60.56;100402.78;4865671;29;20073;-59
2023/07/01 08:57:18;;;;;;;22.38;19.98;;;;;;;24.37;60.35;100398.72;4867200;29;20045;-59
2023/07/01 08:59:50;;;;;;;21.65;18.83;;;;;;;24.50;60.02;100391.94;4866363;29;20049;-59
2023/07/01 09:02:17;;;;;;;25.05;21.98;;;;;;;24.47;60.26;100394.97;4866817;29;20053;-59
2023/07/01 09:04:45;;;;;;;18.33;16.25;;;;;;;24.53;59.93;100384.31;4866745;29;20060;-59
2023/07/01 09:07:13;;;;;;;19.50;17.63;;;;;;;24.69;59.63;100393.38;4866346;29;20060;-59
2023/07/01 09:09:40;;;;;;;23.08;19.63;;;;;;;24.73;59.74;100392.81;4866520;29;20053;-60
2023/07/01 09:12:08;;;;;;;27.42;24.63;;;;;;;24.71;59.92;100391.31;4867013;29;20052;-60
2023/07/01 09:14:58;;;;;;;26.05;23.27;;;;;;;24.66;59.86;100398.09;4866806;29;20050;-60
2023/07/01 09:17:28;;;;;;;27.25;23.45;;;;;;;24.70;59.99;100389.63;4866655;29;20405;-59
2023/07/01 09:19:59;;;;;;;26.92;24.02;;;;;;;24.70;59.88;100389.63;4866741;29;20060;-60
2023/07/01 09:22:28;;;;;;;28.15;25.15;;;;;;;24.63;60.28;100387.66;4866900;29;20076;-60
2023/07/01 09:24:56;;;;;;;26.27;21.73;;;;;;;24.60;60.01;100388.00;4866769;29;20053;-60
2023/07/01 09:27:47;;;;;;;28.73;25.75;;;;;;;24.59;59.99;100389.03;4866777;29;20053;-59
2023/07/01 09:30:20;;;;;;;26.83;23.92;;;;;;;24.56;60.12;100391.25;4867193;29;20065;-59
2023/07/01 09:32:47;;;;;;;27.10;22.77;;;;;;;24.54;59.97;100380.56;4866369;29;20080;-59
2023/07/01 09:35:15;;;;;;;24.98;21.80;;;;;;;24.59;59.75;100370.09;4866182;29;20409;-59
2023/07/01 09:37:42;;;;;;;17.60;15.07;;;;;;;24.73;59.69;100370.34;4866921;29;20046;-60
2023/07/01 09:40:22;;;;;;;22.75;20.33;;;;;;;24.72;59.68;100365.94;4865596;29;20069;-61
2023/07/01 09:42:51;;;;;;;22.95;20.63;;;;;;;24.73;59.35;100364.91;4866409;29;20076;-60
2023/07/01 09:45:20;;;;;;;25.02;22.30;;;;;;;24.67;59.32;100364.63;4858591;29;20467;-62
2023/07/01 09:47:54;;;;;;;22.08;19.77;;;;;;;24.63;59.20;100360.59;4855009;29;20402;-60
2023/07/01 09:50:23;;;;;;;21.65;19.20;;;;;;;24.63;59.69;100357.88;4866448;29;20053;-59
2023/07/01 09:52:53;;;;;;;19.83;16.40;;;;;;;24.65;59.08;100361.22;4863393;29;20390;-59
2023/07/01 09:55:22;;;;;;;18.27;16.33;;;;;;;24.61;58.44;100364.47;4859329;29;20041;-59
2023/07/01 09:57:50;;;;;;;18.08;16.25;;;;;;;24.61;58.32;100359.06;4863256;29;20072;-60
2023/07/01 10:00:17;;;;;;;20.50;17.23;;;;;;;24.61;58.88;100353.66;4863636;29;20053;-60
2023/07/01 10:02:46;;;;;;;19.10;16.73;;;;;;;24.66;58.38;100352.09;4863625;29;20056;-60
2023/07/01 10:05:14;;;;;;;15.32;13.82;;;;;;;24.67;58.40;100342.97;4863432;29;20049;-60
2023/07/01 10:07:42;;;;;;;18.27;16.05;;;;;;;24.71;58.71;100348.00;4863567;29;20057;-60
2023/07/01 10:10:16;;;;;;;12.82;11.52;;;;;;;24.79;58.41;100351.50;4862495;29;20053;-60
2023/07/01 10:12:45;;;;;;;11.35;9.88;;;;;;;24.89;58.27;100344.00;4862854;29;20052;-60
2023/07/01 10:15:23;;;;;;;9.77;8.35;;;;;;;25.01;57.59;100349.84;4863415;29;20076;-60
2023/07/01 10:17:55;;;;;;;7.85;6.85;;;;;;;25.10;57.49;100337.09;4863127;29;20044;-61
2023/07/01 10:20:31;;;;;;;8.57;6.30;;;;;;;25.20;57.56;100336.84;4863031;29;20049;-60
2023/07/01 10:23:03;;;;;;;6.68;5.97;;;;;;;25.26;57.14;100333.41;4863201;29;20497;-60
2023/07/01 10:25:36;;;;;;;7.50;6.00;;;;;;;25.33;57.06;100337.06;4852205;29;20061;-60
2023/07/01 10:28:04;;;;;;;;;;;;;;;25.36;56.96;100336.69;4844754;29;20054;-56
2023/07/01 10:30:43;;;;;;;5.50;4.47;;;;;;;25.40;56.95;100332.59;4844248;29;19931;-55
2023/07/01 10:33:35;;;;;;;6.00;4.82;;;;;;;25.47;56.81;100330.00;4845366;29;20072;-55
2023/07/01 10:36:04;;;;;;;6.72;5.00;;;;;;;25.49;56.93;100330.66;4862257;29;20050;-60
2023/07/01 10:38:33;;;;;;;6.18;5.05;;;;;;;25.52;56.69;100333.84;4862378;29;20073;-60
2023/07/01 10:41:01;;;;;;;6.35;5.40;;;;;;;25.55;56.60;100330.75;4862159;29;20056;-60
2023/07/01 10:43:29;;;;;;;6.70;4.97;;;;;;;25.58;56.71;100329.53;4862059;29;20041;-60
2023/07/01 10:46:12;;;;;;;5.40;4.88;;;;;;;25.60;56.70;100331.06;4861955;29;20521;-55
2023/07/01 10:49:03;;;;;;;6.82;5.22;;;;;;;25.62;56.53;100320.84;4861966;29;20056;-56
2023/07/01 10:51:44;;;;;;;5.85;5.25;;;;;;;25.64;56.50;100321.53;4862265;29;20057;-55
2023/07/01 10:54:12;;;;;;;5.55;4.80;;;;;;;25.67;56.27;100325.72;4861932;29;20053;-55
2023/07/01 10:57:01;;;;;;;4.95;4.35;;;;;;;25.69;56.62;100320.97;4860444;29;20056;-55
2023/07/01 10:59:30;;;;;;;6.10;4.93;;;;;;;25.71;56.41;100328.91;4861659;29;20049;-56
2023/07/01 11:02:00;;;;;;;5.50;4.72;;;;;;;25.72;56.47;100317.84;4861951;29;20054;-54
2023/07/01 11:04:54;;;;;;;5.50;4.65;;;;;;;25.74;56.24;100312.28;4861432;29;20490;-56
2023/07/01 11:07:26;;;;;;;6.43;4.13;;;;;;;25.75;56.32;100309.34;4859279;29;20072;-60
2023/07/01 11:09:55;;;;;;;5.10;4.40;;;;;;;25.77;56.25;100303.78;4861034;29;20052;-60
2023/07/01 11:12:24;;;;;;;5.95;5.20;;;;;;;25.78;56.13;100305.47;4861895;29;20064;-60
2023/07/01 11:14:53;;;;;;;4.72;4.22;;;;;;;25.79;56.12;100305.28;4861530;29;20050;-60
2023/07/01 11:17:22;;;;;;;5.47;4.70;;;;;;;25.80;56.24;100304.25;4861494;29;20516;-54
2023/07/01 11:19:56;;;;;;;5.30;4.63;;;;;;;25.81;56.20;100303.25;4861721;29;20056;-55
2023/07/01 11:22:24;;;;;;;4.85;4.30;;;;;;;25.82;56.04;100299.50;4861342;29;20053;-57
2023/07/01 11:24:51;;;;;;;5.93;4.22;;;;;;;25.83;56.01;100284.06;4861254;29;20053;-55
2023/07/01 11:27:21;;;;;;;5.90;4.53;;;;;;;25.84;56.01;100285.72;4861686;29;20060;-60
2023/07/01 11:29:48;;;;;;;5.68;4.60;;;;;;;25.85;56.09;100282.00;4861125;29;20052;-60